Terminal Aerodrome Forecast
Issued by NWS Topeka, KS

Home | Current Version | Previous Version | Text Only | Print | Product List | Glossary Off
Versions: 1 2 3 4 5 6 7 8 9 10 11 12 13 14 15

000
FTUS43 KTOP 151100
TAFTOP
TAF
KTOP 151126Z 1512/1612 25004KT P6SM SKC
     FM152000 18010G17KT P6SM SCT200
     FM160400 17014KT P6SM BKN200=

USA.gov is the U.S. government's official web portal to all federal, state and local government web resources and services.